createdAt,value
2019-01-27T00:01:41.949Z,90886.38
2019-01-27T00:04:13.015Z,90887.47
2019-01-27T00:06:43.907Z,90888.08
2019-01-27T00:09:14.836Z,90891.14
2019-01-27T00:11:45.863Z,90892.08
2019-01-27T00:14:16.752Z,90890.13
2019-01-27T00:16:48.046Z,90910.11
2019-01-27T00:19:19.024Z,90928.50
2019-01-27T00:21:49.907Z,90935.09
2019-01-27T00:24:20.828Z,90943.36
2019-01-27T00:26:51.697Z,90944.42
2019-01-27T00:29:24.165Z,90946.00
2019-01-27T00:31:55.140Z,90942.33
2019-01-27T00:34:26.012Z,90946.45
2019-01-27T00:36:56.908Z,90951.53
2019-01-27T00:39:27.832Z,90953.78
2019-01-27T00:42:00.276Z,90950.44
2019-01-27T00:44:31.173Z,90950.86
2019-01-27T00:47:02.157Z,90955.53
2019-01-27T00:49:33.023Z,90952.95
2019-01-27T00:52:04.078Z,90952.18
2019-01-27T00:54:34.992Z,90953.59
2019-01-27T00:57:06.181Z,90954.85
2019-01-27T00:59:37.087Z,90953.74
2019-01-27T01:02:07.953Z,90950.39
2019-01-27T01:04:38.837Z,90954.72
2019-01-27T01:07:11.517Z,90959.73
2019-01-27T01:09:42.397Z,90959.89
2019-01-27T01:12:13.275Z,90964.92
2019-01-27T01:14:46.736Z,90964.07
2019-01-27T01:17:17.711Z,90968.94
2019-01-27T01:19:48.635Z,90960.67
2019-01-27T01:22:20.226Z,90969.86
2019-01-27T01:24:51.108Z,90966.93
2019-01-27T01:27:22.173Z,90975.36
2019-01-27T01:29:53.046Z,90967.32
2019-01-27T01:32:23.936Z,90968.09
2019-01-27T01:34:54.966Z,90967.77
2019-01-27T01:37:25.948Z,90969.81
2019-01-27T01:39:56.840Z,90966.15
2019-01-27T01:42:27.831Z,90965.39
2019-01-27T01:45:00.292Z,90965.92
2019-01-27T01:47:31.219Z,90970.40
2019-01-27T01:50:02.145Z,90970.45
2019-01-27T01:52:33.036Z,90967.02
2019-01-27T01:55:04.170Z,90970.39
2019-01-27T01:57:35.148Z,90967.79
2019-01-27T02:00:08.305Z,90972.42
2019-01-27T02:02:39.250Z,90968.17
2019-01-27T02:05:10.973Z,90965.14
2019-01-27T02:07:41.858Z,90963.21
2019-01-27T02:10:13.849Z,90969.07
2019-01-27T02:12:44.828Z,90963.46
2019-01-27T02:16:05.162Z,90958.28
2019-01-27T02:18:36.298Z,90954.69
2019-01-27T02:21:08.197Z,90955.23
2019-01-27T02:23:39.296Z,90956.91
2019-01-27T02:26:10.697Z,90953.85
2019-01-27T02:28:41.648Z,90961.37
2019-01-27T02:31:12.526Z,90964.83
2019-01-27T02:33:43.397Z,90969.71
2019-01-27T02:36:14.395Z,90973.61
2019-01-27T02:38:45.285Z,90969.53
2019-01-27T02:41:16.177Z,90971.07
2019-01-27T02:43:47.118Z,90976.09
2019-01-27T02:46:18.244Z,90978.02
2019-01-27T02:48:49.226Z,90982.27
2019-01-27T02:51:22.030Z,90986.95
2019-01-27T02:53:55.668Z,90993.67
2019-01-27T02:56:26.616Z,90994.16
2019-01-27T02:58:57.502Z,90998.91
2019-01-27T03:01:28.417Z,90996.62
2019-01-27T03:03:59.317Z,91002.44
2019-01-27T03:06:49.224Z,91002.20
2019-01-27T03:09:27.146Z,91002.73
2019-01-27T03:11:59.499Z,90997.74
2019-01-27T03:14:30.381Z,90994.20
2019-01-27T03:17:01.254Z,90996.04
2019-01-27T03:19:32.295Z,90997.59
2019-01-27T03:22:03.285Z,90996.95
2019-01-27T03:24:34.189Z,91006.65
2019-01-27T03:27:05.392Z,91013.14
2019-01-27T03:29:36.285Z,91017.00
2019-01-27T03:32:07.148Z,91016.03
2019-01-27T03:34:38.072Z,91027.05
2019-01-27T03:37:08.941Z,91027.17
2019-01-27T03:39:39.829Z,91026.38
2019-01-27T03:42:11.433Z,91024.64
2019-01-27T03:44:42.327Z,91024.44
2019-01-27T03:47:13.204Z,91025.46
2019-01-27T03:49:44.144Z,91017.27
2019-01-27T03:52:15.031Z,91023.04
2019-01-27T03:54:45.936Z,91026.50
2019-01-27T03:57:19.852Z,91024.66
2019-01-27T03:59:50.742Z,91030.03
2019-01-27T04:02:21.720Z,91036.13
2019-01-27T04:04:52.663Z,91037.14
2019-01-27T04:07:23.547Z,91041.39
2019-01-27T04:09:54.436Z,91041.48
2019-01-27T04:12:25.390Z,91041.70
2019-01-27T04:14:56.277Z,91042.81
2019-01-27T04:17:27.331Z,91043.11
2019-01-27T04:19:58.360Z,91042.50
2019-01-27T04:22:29.309Z,91041.53
2019-01-27T04:25:00.297Z,91036.23
2019-01-27T04:27:31.326Z,91043.41
2019-01-27T04:30:02.211Z,91048.17
2019-01-27T04:32:33.082Z,91045.44
2019-01-27T04:35:08.769Z,91047.47
2019-01-27T04:37:39.850Z,91049.98
2019-01-27T04:40:14.406Z,91053.44
2019-01-27T04:42:45.394Z,91055.38
2019-01-27T04:45:19.026Z,91055.86
2019-01-27T04:47:49.916Z,91051.00
2019-01-27T04:50:20.855Z,91049.89
2019-01-27T04:52:51.943Z,91047.66
2019-01-27T04:55:22.845Z,91048.17
2019-01-27T04:57:53.851Z,91047.05
2019-01-27T05:00:25.256Z,91051.91
2019-01-27T05:03:12.117Z,91050.19
2019-01-27T05:05:42.999Z,91045.94
2019-01-27T05:08:13.893Z,91042.90
2019-01-27T05:10:44.828Z,91044.33
2019-01-27T05:13:15.732Z,91044.23
2019-01-27T05:15:46.611Z,91048.00
2019-01-27T05:18:17.733Z,91047.98
2019-01-27T05:20:48.841Z,91053.45
2019-01-27T05:23:21.140Z,91057.59
2019-01-27T05:25:52.030Z,91062.01
2019-01-27T05:28:22.911Z,91071.94
2019-01-27T05:30:53.846Z,91082.15
2019-01-27T05:33:24.738Z,91087.91
2019-01-27T05:35:55.645Z,91096.45
2019-01-27T05:38:26.662Z,91091.81
2019-01-27T05:40:57.551Z,91105.63
2019-01-27T05:43:28.427Z,91106.33
2019-01-27T05:45:59.376Z,91109.36
2019-01-27T05:48:30.282Z,91107.84
2019-01-27T05:51:01.164Z,91113.58
2019-01-27T05:53:32.160Z,91113.24
2019-01-27T05:56:03.052Z,91115.14
2019-01-27T05:58:34.035Z,91118.94
2019-01-27T06:01:04.950Z,91115.18
2019-01-27T06:03:35.847Z,91113.41
2019-01-27T06:06:06.742Z,91121.23
2019-01-27T06:08:37.716Z,91119.23
2019-01-27T06:11:08.590Z,91121.08
2019-01-27T06:13:39.483Z,91127.36
2019-01-27T06:16:10.414Z,91127.36
2019-01-27T06:18:41.341Z,91121.86
2019-01-27T06:21:12.465Z,91123.89
2019-01-27T06:23:44.408Z,91126.84
2019-01-27T06:26:15.310Z,91139.70
2019-01-27T06:28:46.203Z,91139.44
2019-01-27T06:31:17.129Z,91136.36
2019-01-27T06:34:00.911Z,91139.00
2019-01-27T06:36:31.837Z,91138.93
2019-01-27T06:39:02.958Z,91138.64
2019-01-27T06:41:33.982Z,91139.03
2019-01-27T06:44:05.008Z,91139.80
2019-01-27T06:46:35.896Z,91136.92
2019-01-27T06:49:09.054Z,91137.53
2019-01-27T06:51:40.081Z,91141.88
2019-01-27T06:54:11.007Z,91141.11
2019-01-27T06:56:41.913Z,91141.59
2019-01-27T06:59:27.604Z,91141.70
2019-01-27T07:02:05.272Z,91146.02
2019-01-27T07:04:45.672Z,91152.45
2019-01-27T07:07:23.630Z,91156.02
2019-01-27T07:10:13.746Z,91149.75
2019-01-27T07:12:53.876Z,91147.92
2019-01-27T07:15:50.001Z,91145.65
2019-01-27T07:18:47.490Z,91153.20
2019-01-27T07:21:44.466Z,91158.91
2019-01-27T07:24:37.366Z,91153.82
2019-01-27T07:27:24.169Z,91160.28
2019-01-27T07:30:16.992Z,91155.38
2019-01-27T07:33:15.676Z,91155.53
2019-01-27T07:36:00.112Z,91150.67
2019-01-27T07:38:51.041Z,91143.38
2019-01-27T07:41:52.947Z,91141.52
2019-01-27T07:44:46.797Z,91135.55
2019-01-27T07:47:36.213Z,91139.41
2019-01-27T07:50:26.424Z,91143.00
2019-01-27T07:53:11.824Z,91144.97
2019-01-27T07:56:03.085Z,91156.30
2019-01-27T07:59:05.048Z,91155.10
2019-01-27T08:01:47.021Z,91158.11
2019-01-27T08:04:35.649Z,91163.12
2019-01-27T08:07:24.368Z,91168.23
2019-01-27T08:10:12.909Z,91174.39
2019-01-27T08:13:03.696Z,91177.21
2019-01-27T08:15:55.075Z,91182.25
2019-01-27T08:18:43.417Z,91188.73
2019-01-27T08:21:46.368Z,91192.89
2019-01-27T08:24:38.299Z,91195.34
2019-01-27T08:27:31.223Z,91199.98
2019-01-27T08:30:27.002Z,91198.63
2019-01-27T08:33:35.719Z,91192.23
2019-01-27T08:36:23.315Z,91192.80
2019-01-27T08:39:13.730Z,91194.50
2019-01-27T08:42:17.240Z,91195.05
2019-01-27T08:45:16.260Z,91189.45
2019-01-27T08:47:48.212Z,91188.03
2019-01-27T08:50:19.752Z,91194.58
2019-01-27T08:52:50.668Z,91188.91
2019-01-27T08:55:21.681Z,91188.16
2019-01-27T08:57:54.871Z,91194.86
2019-01-27T09:00:44.749Z,91181.61
2019-01-27T09:03:40.791Z,91183.02
2019-01-27T09:06:46.308Z,91189.95
2019-01-27T09:09:42.134Z,91197.08
2019-01-27T09:12:31.938Z,91206.28
2019-01-27T09:15:21.707Z,91205.47
2019-01-27T09:18:20.498Z,91209.03
2019-01-27T09:21:08.797Z,91202.22
2019-01-27T09:23:53.675Z,91205.03
2019-01-27T09:26:49.592Z,91210.06
2019-01-27T09:29:38.391Z,91208.62
2019-01-27T09:32:30.943Z,91207.98
2019-01-27T09:35:19.255Z,91205.37
2019-01-27T09:38:21.972Z,91204.06
2019-01-27T09:41:11.774Z,91206.97
2019-01-27T09:44:00.203Z,91204.67
2019-01-27T09:47:08.097Z,91201.91
2019-01-27T09:49:56.680Z,91200.27
2019-01-27T09:52:49.272Z,91199.62
2019-01-27T09:55:44.842Z,91202.11
2019-01-27T09:58:33.392Z,91202.11
2019-01-27T10:01:31.516Z,91194.88
2019-01-27T10:04:27.191Z,91196.56
2019-01-27T10:07:09.151Z,91200.80
2019-01-27T10:10:02.115Z,91193.91
2019-01-27T10:13:01.063Z,91192.00
2019-01-27T10:15:49.485Z,91196.92
2019-01-27T10:18:31.091Z,91199.84
2019-01-27T10:21:08.286Z,91188.03
2019-01-27T10:23:51.852Z,91184.96
2019-01-27T10:26:41.682Z,91187.52
2019-01-27T10:29:46.538Z,91184.86
2019-01-27T10:32:28.287Z,91186.52
2019-01-27T10:35:06.926Z,91190.14
2019-01-27T10:38:00.086Z,91191.22
2019-01-27T10:40:40.038Z,91184.08
2019-01-27T10:43:25.898Z,91177.91
2019-01-27T10:46:09.610Z,91177.19
2019-01-27T10:49:02.196Z,91173.00
2019-01-27T10:51:51.953Z,91166.85
2019-01-27T10:54:40.572Z,91158.50
2019-01-27T10:57:36.360Z,91152.06
2019-01-27T11:00:29.382Z,91146.02
2019-01-27T11:03:37.383Z,91145.80
2019-01-27T11:06:27.189Z,91146.27
2019-01-27T11:09:17.288Z,91149.72
2019-01-27T11:12:09.924Z,91150.84
2019-01-27T11:14:58.566Z,91151.77
2019-01-27T11:17:47.047Z,91157.09
2019-01-27T11:20:39.983Z,91151.28
2019-01-27T11:23:20.197Z,91144.95
2019-01-27T11:26:09.011Z,91143.52
2019-01-27T11:29:04.977Z,91138.44
2019-01-27T11:31:59.097Z,91132.05
2019-01-27T11:34:47.473Z,91129.39
2019-01-27T11:37:49.217Z,91129.46
2019-01-27T11:40:47.323Z,91126.91
2019-01-27T11:43:44.511Z,91127.45
2019-01-27T11:46:35.074Z,91125.50
2019-01-27T11:49:16.733Z,91128.83
2019-01-27T11:51:51.608Z,91124.20
2019-01-27T11:54:22.501Z,91123.80
2019-01-27T11:56:53.386Z,91124.98
2019-01-27T11:59:24.297Z,91127.81
2019-01-27T12:01:55.171Z,91128.43
2019-01-27T12:04:26.052Z,91129.78
2019-01-27T12:06:57.027Z,91130.81
2019-01-27T12:09:28.077Z,91131.94
2019-01-27T12:12:00.890Z,91128.11
2019-01-27T12:14:31.806Z,91129.34
2019-01-27T12:17:02.669Z,91134.77
2019-01-27T12:19:33.536Z,91140.24
2019-01-27T12:22:07.545Z,91132.75
2019-01-27T12:24:38.426Z,91133.28
2019-01-27T12:27:12.443Z,91127.30
2019-01-27T12:29:43.358Z,91126.70
2019-01-27T12:32:14.229Z,91121.03
2019-01-27T12:34:45.094Z,91116.06
2019-01-27T12:37:18.276Z,91107.55
2019-01-27T12:39:49.248Z,91113.33
2019-01-27T12:42:20.273Z,91119.67
2019-01-27T12:44:52.124Z,91121.68
2019-01-27T12:47:23.004Z,91119.77
2019-01-27T12:49:53.933Z,91121.84
2019-01-27T12:52:24.903Z,91115.52
2019-01-27T12:54:55.803Z,91114.89
2019-01-27T12:57:26.707Z,91114.05
2019-01-27T12:59:57.625Z,91112.50
2019-01-27T13:02:34.482Z,91106.84
2019-01-27T13:05:10.248Z,91107.69
2019-01-27T13:07:38.878Z,91108.30
2019-01-27T13:10:12.189Z,91107.92
2019-01-27T13:12:43.254Z,91104.20
2019-01-27T13:15:15.909Z,91105.51
2019-01-27T13:17:50.406Z,91100.69
2019-01-27T13:20:21.764Z,91102.52
2019-01-27T13:22:59.765Z,91100.52
2019-01-27T13:25:32.161Z,91101.88
2019-01-27T13:28:03.446Z,91097.30
2019-01-27T13:30:36.015Z,91098.12
2019-01-27T13:33:07.139Z,91101.44
2019-01-27T13:35:38.987Z,91099.09
2019-01-27T13:38:10.682Z,91096.15
2019-01-27T13:40:41.705Z,91099.51
2019-01-27T13:43:15.773Z,91098.94
2019-01-27T13:45:47.836Z,91098.57
2019-01-27T13:48:18.787Z,91102.12
2019-01-27T13:50:49.665Z,91103.05
2019-01-27T13:53:20.556Z,91110.65
2019-01-27T13:55:51.473Z,91105.98
2019-01-27T13:58:22.374Z,91111.92
2019-01-27T14:00:53.275Z,91111.27
2019-01-27T14:03:24.195Z,91107.41
2019-01-27T14:05:55.202Z,91113.11
2019-01-27T14:08:27.163Z,91113.61
2019-01-27T14:10:58.456Z,91126.44
2019-01-27T14:13:29.558Z,91113.89
2019-01-27T14:16:00.456Z,91118.56
2019-01-27T14:18:31.503Z,91114.50
2019-01-27T14:21:02.964Z,91114.30
2019-01-27T14:23:33.931Z,91112.63
2019-01-27T14:26:05.124Z,91112.17
2019-01-27T14:28:36.182Z,91111.19
2019-01-27T14:31:07.110Z,91108.00
2019-01-27T14:33:38.622Z,91106.05
2019-01-27T14:36:09.673Z,91105.91
2019-01-27T14:38:40.671Z,91109.88
2019-01-27T14:41:11.633Z,91107.51
2019-01-27T14:43:45.497Z,91104.23
2019-01-27T14:46:17.870Z,91102.73
2019-01-27T14:48:49.312Z,91105.11
2019-01-27T14:51:20.299Z,91105.59
2019-01-27T14:53:51.221Z,91108.02
2019-01-27T14:56:22.171Z,91106.89
2019-01-27T14:58:53.121Z,91113.22
2019-01-27T15:01:25.027Z,91111.26
2019-01-27T15:03:56.013Z,91108.77
2019-01-27T15:06:29.677Z,91116.51
2019-01-27T15:09:00.586Z,91111.93
2019-01-27T15:11:31.618Z,91111.03
2019-01-27T15:14:02.508Z,91115.30
2019-01-27T15:16:33.434Z,91111.93
2019-01-27T15:19:05.142Z,91114.87
2019-01-27T15:21:36.333Z,91118.13
2019-01-27T15:24:07.379Z,91123.20
2019-01-27T15:26:38.327Z,91127.02
2019-01-27T15:29:09.305Z,91123.72
2019-01-27T15:31:41.218Z,91126.55
2019-01-27T15:34:12.161Z,91129.28
2019-01-27T15:36:43.049Z,91129.37
2019-01-27T15:39:13.950Z,91131.95
2019-01-27T15:41:50.208Z,91129.51
2019-01-27T15:44:21.503Z,91132.99
2019-01-27T15:46:52.527Z,91134.91
2019-01-27T15:49:23.657Z,91138.02
2019-01-27T15:51:54.664Z,91140.83
2019-01-27T15:54:25.627Z,91143.05
2019-01-27T15:56:56.864Z,91139.16
2019-01-27T15:59:27.785Z,91144.50
2019-01-27T16:01:58.744Z,91140.76
2019-01-27T16:04:29.696Z,91142.62
2019-01-27T16:07:00.787Z,91139.51
2019-01-27T16:09:31.766Z,91146.23
2019-01-27T16:12:03.040Z,91153.01
2019-01-27T16:14:33.998Z,91147.55
2019-01-27T16:17:05.243Z,91147.38
2019-01-27T16:19:36.562Z,91145.86
2019-01-27T16:22:08.494Z,91146.48
2019-01-27T16:24:40.326Z,91147.45
2019-01-27T16:27:11.399Z,91151.22
2019-01-27T16:29:58.106Z,91157.66
2019-01-27T16:32:32.721Z,91164.52
2019-01-27T16:35:09.614Z,91174.05
2019-01-27T16:37:40.681Z,91174.08
2019-01-27T16:40:14.777Z,91178.08
2019-01-27T16:42:45.880Z,91170.42
2019-01-27T16:45:19.847Z,91180.56
2019-01-27T16:47:50.753Z,91178.45
2019-01-27T16:50:21.939Z,91184.65
2019-01-27T16:52:52.870Z,91183.95
2019-01-27T16:55:24.908Z,91192.88
2019-01-27T16:58:02.141Z,91188.56
2019-01-27T17:00:39.149Z,91195.39
2019-01-27T17:03:11.135Z,91193.75
2019-01-27T17:05:42.430Z,91199.64
2019-01-27T17:08:13.531Z,91199.95
2019-01-27T17:10:44.492Z,91200.44
2019-01-27T17:13:20.854Z,91202.58
2019-01-27T17:15:51.924Z,91202.93
2019-01-27T17:18:22.881Z,91205.58
2019-01-27T17:20:53.812Z,91202.02
2019-01-27T17:23:25.117Z,91205.92
2019-01-27T17:26:01.384Z,91201.06
2019-01-27T17:28:32.449Z,91209.09
2019-01-27T17:31:03.480Z,91208.68
2019-01-27T17:33:34.390Z,91214.69
2019-01-27T17:36:05.485Z,91216.70
2019-01-27T17:38:40.561Z,91212.42
2019-01-27T17:41:09.131Z,91209.27
2019-01-27T17:43:40.136Z,91214.45
2019-01-27T17:46:11.077Z,91215.27
2019-01-27T17:48:42.094Z,91209.29
2019-01-27T17:51:13.203Z,91210.97
2019-01-27T17:53:50.404Z,91217.63
2019-01-27T17:56:21.411Z,91211.24
2019-01-27T17:59:19.173Z,91215.36
2019-01-27T18:02:08.091Z,91217.92
2019-01-27T18:04:50.091Z,91213.16
2019-01-27T18:07:38.831Z,91213.78
2019-01-27T18:10:19.445Z,91225.44
2019-01-27T18:13:09.367Z,91224.45
2019-01-27T18:15:40.397Z,91226.82
2019-01-27T18:18:11.502Z,91221.41
2019-01-27T18:20:42.450Z,91216.66
2019-01-27T18:23:13.458Z,91227.40
2019-01-27T18:25:44.523Z,91232.16
2019-01-27T18:28:15.562Z,91228.30
2019-01-27T18:30:46.603Z,91235.67
2019-01-27T18:33:17.856Z,91239.38
2019-01-27T18:35:48.769Z,91241.02
2019-01-27T18:38:19.733Z,91240.44
2019-01-27T18:40:50.876Z,91238.70
2019-01-27T18:43:21.911Z,91234.55
2019-01-27T18:45:54.690Z,91242.13
2019-01-27T18:48:25.670Z,91236.06
2019-01-27T18:50:56.592Z,91235.76
2019-01-27T18:53:53.431Z,91234.95
2019-01-27T18:56:39.268Z,91241.77
2019-01-27T18:59:35.074Z,91239.92
2019-01-27T19:02:34.436Z,91243.44
2019-01-27T19:05:28.059Z,91238.86
2019-01-27T19:08:05.721Z,91238.65
2019-01-27T19:11:00.304Z,91237.84
2019-01-27T19:13:53.256Z,91241.63
2019-01-27T19:16:49.406Z,91242.41
2019-01-27T19:19:42.045Z,91243.17
2019-01-27T19:22:24.801Z,91245.81
2019-01-27T19:25:17.808Z,91252.19
2019-01-27T19:28:03.971Z,91253.64
2019-01-27T19:31:05.910Z,91248.30
2019-01-27T19:33:47.958Z,91255.22
2019-01-27T19:36:38.642Z,91260.98
2019-01-27T19:39:36.239Z,91259.83
2019-01-27T19:42:29.238Z,91267.47
2019-01-27T19:45:23.064Z,91262.98
2019-01-27T19:48:15.751Z,91256.30
2019-01-27T19:51:09.137Z,91256.42
2019-01-27T19:54:02.302Z,91251.59
2019-01-27T19:56:43.443Z,91261.20
2019-01-27T19:59:33.379Z,91264.27
2019-01-27T20:02:26.440Z,91265.66
2019-01-27T20:05:14.846Z,91264.56
2019-01-27T20:07:51.158Z,91253.52
2019-01-27T20:10:50.268Z,91249.44
2019-01-27T20:13:36.205Z,91244.44
2019-01-27T20:16:32.470Z,91243.67
2019-01-27T20:19:21.635Z,91245.31
2019-01-27T20:22:20.869Z,91242.46
2019-01-27T20:25:10.865Z,91247.50
2019-01-27T20:28:18.919Z,91250.77
2019-01-27T20:31:02.182Z,91250.70
2019-01-27T20:33:43.596Z,91254.02
2019-01-27T20:36:40.769Z,91256.59
2019-01-27T20:39:30.799Z,91256.34
2019-01-27T20:42:15.180Z,91261.80
2019-01-27T20:45:18.752Z,91257.41
2019-01-27T20:48:21.198Z,91253.05
2019-01-27T20:51:16.945Z,91249.67
2019-01-27T20:54:12.620Z,91253.41
2019-01-27T20:57:03.933Z,91242.41
2019-01-27T21:00:11.479Z,91243.46
2019-01-27T21:03:21.949Z,91225.17
2019-01-27T21:06:31.623Z,91228.87
2019-01-27T21:09:46.366Z,91225.25
2019-01-27T21:13:01.052Z,91230.94
2019-01-27T21:16:05.267Z,91229.20
2019-01-27T21:19:00.462Z,91237.31
2019-01-27T21:21:49.770Z,91240.94
2019-01-27T21:24:39.078Z,91240.92
2019-01-27T21:27:28.541Z,91243.12
2019-01-27T21:30:18.535Z,91242.53
2019-01-27T21:33:07.982Z,91247.90
2019-01-27T21:35:57.690Z,91237.42
2019-01-27T21:38:48.279Z,91221.59
2019-01-27T21:41:36.960Z,91213.86
2019-01-27T21:44:26.417Z,91202.37
2019-01-27T21:47:15.946Z,91193.53
2019-01-27T21:49:46.865Z,91188.94
2019-01-27T21:52:18.866Z,91204.19
2019-01-27T21:54:50.530Z,91212.45
2019-01-27T21:57:21.814Z,91207.85
2019-01-27T21:59:52.909Z,91205.66
2019-01-27T22:02:23.847Z,91210.02
2019-01-27T22:04:54.774Z,91213.52
2019-01-27T22:07:25.680Z,91222.98
2019-01-27T22:09:56.684Z,91225.62
2019-01-27T22:12:27.584Z,91228.97
2019-01-27T22:14:58.495Z,91223.02
2019-01-27T22:17:29.431Z,91231.59
2019-01-27T22:20:01.966Z,91235.75
2019-01-27T22:22:32.899Z,91234.05
2019-01-27T22:25:05.255Z,91238.39
2019-01-27T22:27:36.161Z,91246.41
2019-01-27T22:30:10.238Z,91237.70
2019-01-27T22:32:45.588Z,91238.63
2019-01-27T22:35:16.582Z,91238.17
2019-01-27T22:37:47.730Z,91242.56
2019-01-27T22:40:18.736Z,91240.66
2019-01-27T22:42:49.648Z,91237.23
2019-01-27T22:45:22.438Z,91232.40
2019-01-27T22:47:53.444Z,91231.92
2019-01-27T22:50:24.353Z,91238.20
2019-01-27T22:52:55.292Z,91232.36
2019-01-27T22:55:26.191Z,91235.67
2019-01-27T22:57:57.102Z,91237.31
2019-01-27T23:00:59.394Z,91225.63
2019-01-27T23:03:32.829Z,91225.19
2019-01-27T23:06:03.724Z,91217.59
2019-01-27T23:08:34.675Z,91223.30
2019-01-27T23:11:05.679Z,91212.78
2019-01-27T23:13:36.608Z,91216.68
2019-01-27T23:16:07.817Z,91217.86
2019-01-27T23:18:38.729Z,91218.14
2019-01-27T23:21:09.757Z,91218.58
2019-01-27T23:23:40.735Z,91214.52
2019-01-27T23:26:11.742Z,91217.02
2019-01-27T23:28:42.704Z,91226.05
2019-01-27T23:31:13.683Z,91224.41
2019-01-27T23:33:44.698Z,91220.09
2019-01-27T23:36:16.637Z,91216.62
2019-01-27T23:38:47.582Z,91204.45
2019-01-27T23:41:21.537Z,91194.42
2019-01-27T23:43:52.676Z,91198.43
2019-01-27T23:46:23.578Z,91196.86
2019-01-27T23:48:54.640Z,91189.72
2019-01-27T23:51:25.600Z,91191.83
2019-01-27T23:53:57.694Z,91175.73
2019-01-27T23:56:28.583Z,91185.31
2019-01-27T23:59:00.652Z,91186.81
